Time;durP1;ratioP1;P1;durP2;ratioP2;P2;SDS_P1;SDS_P2;PMS_P1;PMS_P2;Temp;Humidity;BMP_temperature;BMP_pressure;BME280_temperature;BME280_humidity;BME280_pressure;Samples;Min_cycle;Max_cycle;Signal;HPM_P1;HPM_P2
2023/07/09 00:00:49;;;;;;;9.80;8.00;;;22.90;94.60;;;;;;5021836;28;20083;-57
2023/07/09 00:03:15;;;;;;;12.30;8.05;;;22.90;94.60;;;;;;5023153;28;20455;-60
2023/07/09 00:05:42;;;;;;;8.85;7.68;;;22.80;94.70;;;;;;5022960;28;20053;-54
2023/07/09 00:08:31;;;;;;;9.65;7.40;;;22.80;94.70;;;;;;5023585;28;20456;-59
2023/07/09 00:10:57;;;;;;;10.30;7.63;;;22.90;94.80;;;;;;5033689;28;20537;-51
2023/07/09 00:13:25;;;;;;;10.85;7.90;;;22.80;94.80;;;;;;5044098;28;20044;-61
2023/07/09 00:15:52;;;;;;;8.38;7.30;;;22.80;94.80;;;;;;5043300;28;20041;-53
2023/07/09 00:18:18;;;;;;;9.35;7.45;;;22.70;94.80;;;;;;5033622;28;20074;-60
2023/07/09 00:20:43;;;;;;;10.52;7.80;;;22.70;95.00;;;;;;5007980;28;20432;-56
2023/07/09 00:23:19;;;;;;;8.35;7.45;;;22.60;95.00;;;;;;5023494;28;20313;-61
2023/07/09 00:25:45;;;;;;;9.43;7.70;;;22.60;95.10;;;;;;5022502;28;20335;-60
2023/07/09 00:28:20;;;;;;;10.88;8.15;;;22.50;95.20;;;;;;5023565;28;20409;-61
2023/07/09 00:30:46;;;;;;;9.93;7.88;;;22.50;95.40;;;;;;5005717;28;20099;-58
2023/07/09 00:33:14;;;;;;;10.00;8.25;;;22.50;95.30;;;;;;5022849;28;20042;-51
2023/07/09 00:35:45;;;;;;;12.13;7.88;;;22.40;95.40;;;;;;5022952;28;20438;-58
2023/07/09 00:38:22;;;;;;;8.82;7.93;;;22.40;95.60;;;;;;5005659;28;20512;-61
2023/07/09 00:41:00;;;;;;;9.50;7.78;;;22.40;95.70;;;;;;5023103;28;20064;-61
2023/07/09 00:43:37;;;;;;;12.18;7.88;;;22.30;95.80;;;;;;5005595;28;20060;-59
2023/07/09 00:46:27;;;;;;;10.02;7.50;;;22.30;95.80;;;;;;5023606;28;20045;-58
2023/07/09 00:48:57;;;;;;;12.63;7.70;;;22.30;95.80;;;;;;4985772;28;20053;-55
2023/07/09 00:51:25;;;;;;;9.80;7.97;;;22.20;96.00;;;;;;5022391;28;20218;-62
2023/07/09 00:53:58;;;;;;;11.10;8.40;;;22.20;96.20;;;;;;5023236;28;20123;-56
2023/07/09 00:56:46;;;;;;;9.73;8.05;;;22.20;96.40;;;;;;5022618;28;20115;-51
2023/07/09 00:59:16;;;;;;;10.25;8.40;;;22.10;97.00;;;;;;5015276;28;20370;-62
2023/07/09 01:01:42;;;;;;;12.32;8.15;;;22.10;96.50;;;;;;4988008;28;20076;-56
2023/07/09 01:04:10;;;;;;;9.85;8.25;;;22.00;96.60;;;;;;5022895;28;20051;-59
2023/07/09 01:06:41;;;;;;;9.15;8.18;;;21.90;96.80;;;;;;5021478;28;20092;-54
2023/07/09 01:09:07;;;;;;;9.52;7.85;;;21.90;96.80;;;;;;5022484;28;20073;-54
2023/07/09 01:11:34;;;;;;;11.13;8.35;;;21.80;96.90;;;;;;5022101;28;20531;-61
2023/07/09 01:14:05;;;;;;;10.02;8.73;;;21.80;97.00;;;;;;5022488;28;20038;-58
2023/07/09 01:16:37;;;;;;;14.00;8.57;;;21.80;97.10;;;;;;5005203;28;20129;-53
2023/07/09 01:19:04;;;;;;;10.50;8.40;;;21.80;97.20;;;;;;5022858;28;20071;-61
2023/07/09 01:21:30;;;;;;;11.75;8.15;;;21.80;97.30;;;;;;5021720;28;20056;-57
2023/07/09 01:23:57;;;;;;;9.18;7.75;;;21.80;97.40;;;;;;5022219;28;20041;-56
2023/07/09 01:26:25;;;;;;;13.98;8.38;;;21.80;97.30;;;;;;5021858;28;20299;-61
2023/07/09 01:28:52;;;;;;;10.20;7.82;;;21.70;97.50;;;;;;5021872;28;20045;-56
2023/07/09 01:31:20;;;;;;;10.02;8.07;;;21.60;97.30;;;;;;5022326;28;20045;-60
2023/07/09 01:33:46;;;;;;;11.13;7.90;;;21.50;97.20;;;;;;5021220;28;20043;-57
2023/07/09 01:36:23;;;;;;;12.18;8.13;;;21.60;97.20;;;;;;5004318;28;20087;-61
2023/07/09 01:38:49;;;;;;;10.02;8.73;;;21.60;97.20;;;;;;5022446;28;20116;-61
2023/07/09 01:41:16;;;;;;;10.32;7.78;;;21.50;97.30;;;;;;5021286;28;20136;-57
2023/07/09 01:43:43;;;;;;;9.80;7.93;;;21.50;97.40;;;;;;5004506;28;20038;-61
2023/07/09 01:46:09;;;;;;;11.25;7.88;;;21.50;97.50;;;;;;5021997;28;20049;-57
2023/07/09 01:48:40;;;;;;;11.30;8.30;;;21.40;97.50;;;;;;5021718;28;20033;-61
2023/07/09 01:51:11;;;;;;;9.50;8.35;;;21.40;97.50;;;;;;5021382;28;20746;-59
2023/07/09 01:53:39;;;;;;;11.00;8.32;;;21.40;97.70;;;;;;5022020;28;20068;-58
2023/07/09 01:56:07;;;;;;;15.18;8.93;;;21.30;97.90;;;;;;5021926;28;20095;-58
2023/07/09 01:58:33;;;;;;;12.23;8.80;;;21.30;98.00;;;;;;5021657;28;20136;-57
2023/07/09 02:00:59;;;;;;;11.30;9.23;;;21.20;98.10;;;;;;5022197;28;20355;-62
2023/07/09 02:03:25;;;;;;;13.38;9.40;;;21.20;98.20;;;;;;5021168;28;20120;-59
2023/07/09 02:05:54;;;;;;;12.18;9.43;;;21.10;98.20;;;;;;5020164;28;20136;-57
2023/07/09 02:08:20;;;;;;;12.05;9.65;;;21.10;98.40;;;;;;5021893;28;20053;-60
2023/07/09 02:10:49;;;;;;;10.27;8.98;;;21.00;98.60;;;;;;5020904;28;20049;-51
2023/07/09 02:13:15;;;;;;;11.05;9.40;;;21.00;98.80;;;;;;5021548;28;20037;-58
2023/07/09 02:15:43;;;;;;;11.77;9.60;;;20.90;98.90;;;;;;5021493;28;20045;-54
2023/07/09 02:18:13;;;;;;;11.02;9.55;;;20.90;99.10;;;;;;5032202;28;20454;-59
2023/07/09 02:20:39;;;;;;;15.38;9.10;;;20.90;99.20;;;;;;5021938;28;20046;-54
2023/07/09 02:23:08;;;;;;;12.15;9.75;;;20.80;99.20;;;;;;5021178;28;20045;-57
2023/07/09 02:25:33;;;;;;;16.50;10.07;;;20.80;99.30;;;;;;5021804;28;20037;-57
2023/07/09 02:27:59;;;;;;;11.30;8.98;;;20.80;99.30;;;;;;5021036;28;20079;-62
2023/07/09 02:30:25;;;;;;;11.55;9.98;;;20.70;99.50;;;;;;5020937;28;20435;-57
2023/07/09 02:32:54;;;;;;;11.43;10.23;;;20.70;99.60;;;;;;5003969;28;20486;-59
2023/07/09 02:35:20;;;;;;;11.30;10.18;;;20.70;99.70;;;;;;5019963;28;20076;-57
2023/07/09 02:37:46;;;;;;;11.82;10.25;;;20.70;99.70;;;;;;5003651;28;20049;-61
2023/07/09 02:40:12;;;;;;;12.98;11.27;;;20.70;99.90;;;;;;5021358;28;20045;-52
2023/07/09 02:42:38;;;;;;;13.63;10.95;;;20.60;99.90;;;;;;5003579;28;20033;-60
2023/07/09 02:45:04;;;;;;;11.88;10.43;;;20.60;99.90;;;;;;5020551;28;20404;-59
2023/07/09 02:47:30;;;;;;;17.40;9.85;;;20.50;99.90;;;;;;5020884;28;20037;-58
2023/07/09 02:49:56;;;;;;;11.13;9.73;;;20.40;99.90;;;;;;5021844;28;20077;-61
2023/07/09 02:52:21;;;;;;;12.05;10.73;;;20.30;99.90;;;;;;5019369;28;20045;-56
2023/07/09 02:54:47;;;;;;;11.43;10.18;;;20.30;99.90;;;;;;5021445;28;20273;-55
2023/07/09 02:57:13;;;;;;;10.93;9.82;;;20.30;99.90;;;;;;5021045;28;20057;-59
2023/07/09 02:59:38;;;;;;;11.75;10.40;;;20.20;99.90;;;;;;5003277;28;20045;-56
2023/07/09 03:02:05;;;;;;;11.73;10.25;;;20.20;99.90;;;;;;5020654;28;20508;-62
2023/07/09 03:04:33;;;;;;;12.98;10.15;;;20.20;99.90;;;;;;5020946;28;20045;-57
2023/07/09 03:07:02;;;;;;;14.75;10.80;;;20.20;99.90;;;;;;5020322;28;20103;-61
2023/07/09 03:09:29;;;;;;;12.80;9.80;;;20.20;99.90;;;;;;5020197;28;20045;-55
2023/07/09 03:11:55;;;;;;;14.02;11.20;;;20.10;99.90;;;;;;5021074;28;20124;-59
2023/07/09 03:14:21;;;;;;;12.93;11.30;;;20.10;99.90;;;;;;5002898;28;20502;-55
2023/07/09 03:16:46;;;;;;;15.95;11.15;;;20.10;99.90;;;;;;5020765;28;20134;-58
2023/07/09 03:19:12;;;;;;;13.00;11.50;;;20.00;99.90;;;;;;5020616;28;20324;-60
2023/07/09 03:21:38;;;;;;;12.43;11.23;;;20.00;99.90;;;;;;5019237;28;20083;-56
2023/07/09 03:24:04;;;;;;;14.25;11.30;;;20.00;99.90;;;;;;5020916;28;20068;-52
2023/07/09 03:26:29;;;;;;;15.30;10.95;;;20.00;99.90;;;;;;5019899;28;20124;-55
2023/07/09 03:28:55;;;;;;;13.95;10.50;;;20.00;99.90;;;;;;5020665;28;20244;-60
2023/07/09 03:31:22;;;;;;;12.90;10.50;;;19.90;99.90;;;;;;5020749;28;20410;-60
2023/07/09 03:33:48;;;;;;;14.10;9.95;;;19.90;99.90;;;;;;5020768;28;20041;-55
2023/07/09 03:36:14;;;;;;;13.80;10.13;;;19.90;99.90;;;;;;5022233;28;20261;-62
2023/07/09 03:38:40;;;;;;;11.25;9.93;;;19.90;99.90;;;;;;5024567;28;20050;-56
2023/07/09 03:41:06;;;;;;;13.50;9.52;;;20.00;99.90;;;;;;5039739;28;20251;-61
2023/07/09 03:43:32;;;;;;;14.95;10.20;;;20.00;99.90;;;;;;5023930;28;20380;-61
2023/07/09 03:45:58;;;;;;;12.23;9.90;;;20.10;99.90;;;;;;5024044;28;20116;-55
2023/07/09 03:48:23;;;;;;;11.60;9.52;;;20.10;99.90;;;;;;5024770;28;20512;-61
2023/07/09 03:50:49;;;;;;;14.07;10.38;;;20.10;99.90;;;;;;5023399;28;20128;-55
2023/07/09 03:53:16;;;;;;;15.23;10.43;;;20.10;99.90;;;;;;5024004;28;20033;-52
2023/07/09 03:55:42;;;;;;;14.73;9.70;;;20.20;99.90;;;;;;5024658;28;20087;-58
2023/07/09 03:58:09;;;;;;;14.52;10.82;;;20.20;99.90;;;;;;5023746;28;20038;-56
2023/07/09 04:00:35;;;;;;;10.95;9.85;;;20.20;99.90;;;;;;5023631;28;20065;-61
2023/07/09 04:03:00;;;;;;;11.85;9.63;;;20.30;99.90;;;;;;5023968;28;20614;-55
2023/07/09 04:05:27;;;;;;;12.93;9.50;;;20.20;99.90;;;;;;5023136;28;20052;-61
2023/07/09 04:07:53;;;;;;;12.20;9.65;;;20.30;99.90;;;;;;5023675;28;20128;-52
2023/07/09 04:10:19;;;;;;;14.82;9.50;;;20.30;99.90;;;;;;5023740;28;20132;-57
2023/07/09 04:12:45;;;;;;;11.25;9.95;;;20.30;99.90;;;;;;5024397;28;20045;-57
2023/07/09 04:15:15;;;;;;;13.23;9.90;;;20.30;99.90;;;;;;5023577;28;20043;-54
2023/07/09 04:17:41;;;;;;;12.43;9.00;;;20.30;99.90;;;;;;5023058;28;20077;-61
2023/07/09 04:20:09;;;;;;;12.05;9.32;;;20.30;99.90;;;;;;5023086;28;20839;-53
2023/07/09 04:22:35;;;;;;;14.55;9.82;;;20.30;99.90;;;;;;5023872;28;20068;-59
2023/07/09 04:25:03;;;;;;;11.52;9.32;;;20.40;99.90;;;;;;5022923;28;20041;-55
2023/07/09 04:27:29;;;;;;;12.85;9.88;;;20.40;99.90;;;;;;5005824;28;20053;-53
2023/07/09 04:29:55;;;;;;;11.57;9.75;;;20.40;99.90;;;;;;5023313;28;20439;-56
2023/07/09 04:32:21;;;;;;;11.75;9.63;;;20.50;99.90;;;;;;5004818;28;20124;-52
2023/07/09 04:34:47;;;;;;;13.27;8.73;;;20.50;99.90;;;;;;5023167;28;20447;-58
2023/07/09 04:37:16;;;;;;;10.32;9.00;;;20.60;99.90;;;;;;5023567;28;20052;-55
2023/07/09 04:39:42;;;;;;;14.10;9.07;;;20.60;99.60;;;;;;5023600;28;20049;-61
2023/07/09 04:42:13;;;;;;;12.55;8.98;;;20.70;99.50;;;;;;5022655;28;20223;-56
2023/07/09 04:44:39;;;;;;;10.55;8.38;;;20.80;99.30;;;;;;5023335;28;20045;-60
2023/07/09 04:47:05;;;;;;;12.15;9.15;;;20.90;99.10;;;;;;4988684;28;20722;-55
2023/07/09 04:49:32;;;;;;;10.98;8.90;;;20.90;98.90;;;;;;5022879;28;20041;-59
2023/07/09 04:51:59;;;;;;;11.07;8.40;;;21.00;98.60;;;;;;5022382;28;20057;-56
2023/07/09 04:54:25;;;;;;;11.35;9.15;;;21.00;98.60;;;;;;5023163;28;20034;-56
2023/07/09 04:56:51;;;;;;;13.15;9.57;;;21.20;98.40;;;;;;5021983;28;20049;-55
2023/07/09 04:59:16;;;;;;;13.23;9.32;;;21.40;98.10;;;;;;5023267;28;20409;-59
2023/07/09 05:01:42;;;;;;;11.88;8.77;;;21.60;97.60;;;;;;5022896;28;20041;-61
2023/07/09 05:04:07;;;;;;;13.32;9.05;;;21.80;97.20;;;;;;5004815;28;20033;-51
2023/07/09 05:06:34;;;;;;;14.02;8.63;;;21.90;97.00;;;;;;5003896;28;20488;-61
2023/07/09 05:09:00;;;;;;;8.90;8.00;;;22.10;96.70;;;;;;5004661;28;20491;-58
2023/07/09 05:11:26;;;;;;;10.88;7.93;;;22.20;96.50;;;;;;5022694;28;20275;-60
2023/07/09 05:13:51;;;;;;;10.30;7.70;;;22.40;96.30;;;;;;5004500;28;20073;-54
2023/07/09 05:16:17;;;;;;;11.23;7.93;;;22.50;96.00;;;;;;5022740;28;20049;-56
2023/07/09 05:18:44;;;;;;;10.68;8.50;;;22.60;96.00;;;;;;5023206;28;20041;-62
2023/07/09 05:21:10;;;;;;;10.82;8.25;;;22.80;95.90;;;;;;5021876;28;20079;-57
2023/07/09 05:23:35;;;;;;;10.70;7.95;;;22.80;95.70;;;;;;5022197;28;20404;-60
2023/07/09 05:26:03;;;;;;;12.10;8.77;;;22.80;95.80;;;;;;5022448;28;20099;-56
2023/07/09 05:28:29;;;;;;;11.98;8.23;;;23.00;95.60;;;;;;5022273;28;20037;-59
2023/07/09 05:30:55;;;;;;;9.82;7.88;;;23.10;95.40;;;;;;5021790;28;20065;-61
2023/07/09 05:33:21;;;;;;;10.73;7.90;;;23.20;95.20;;;;;;5022170;28;20238;-55
2023/07/09 05:35:47;;;;;;;11.80;7.90;;;23.40;95.00;;;;;;5021662;28;20059;-61
2023/07/09 05:38:14;;;;;;;13.90;8.15;;;23.60;94.60;;;;;;5022091;28;20041;-52
2023/07/09 05:40:41;;;;;;;11.30;8.23;;;23.80;94.40;;;;;;5021824;28;20469;-59
2023/07/09 05:43:08;;;;;;;14.35;8.20;;;24.00;94.00;;;;;;5021930;28;20439;-56
2023/07/09 05:45:33;;;;;;;9.75;8.32;;;24.20;93.90;;;;;;5022054;28;20095;-61
2023/07/09 05:47:59;;;;;;;12.70;8.35;;;24.30;93.60;;;;;;5021337;28;20476;-61
2023/07/09 05:50:26;;;;;;;14.30;7.82;;;24.40;93.50;;;;;;5020946;28;20128;-56
2023/07/09 05:52:51;;;;;;;12.25;8.70;;;24.60;93.40;;;;;;5004411;28;20103;-62
2023/07/09 05:55:17;;;;;;;10.50;7.53;;;24.70;93.10;;;;;;5022240;28;20275;-61
2023/07/09 05:57:43;;;;;;;10.95;7.82;;;24.80;92.80;;;;;;5002941;28;20056;-61
2023/07/09 06:00:09;;;;;;;13.05;7.88;;;24.60;92.90;;;;;;4987954;28;20476;-60
2023/07/09 06:02:35;;;;;;;8.80;7.47;;;24.30;93.30;;;;;;5021180;28;20636;-52
2023/07/09 06:05:01;;;;;;;10.60;7.95;;;24.10;93.80;;;;;;5020208;28;20061;-62
2023/07/09 06:07:27;;;;;;;11.27;7.75;;;24.10;93.90;;;;;;5021226;28;20053;-54
2023/07/09 06:09:53;;;;;;;9.50;7.53;;;24.30;93.70;;;;;;5022012;28;20709;-61
2023/07/09 06:12:19;;;;;;;9.75;7.32;;;24.60;93.50;;;;;;5022330;28;20392;-52
2023/07/09 06:14:46;;;;;;;9.18;7.10;;;24.90;93.40;;;;;;5021090;28;20045;-57
2023/07/09 06:17:12;;;;;;;13.10;7.50;;;25.10;93.20;;;;;;5021698;28;20053;-59
2023/07/09 06:19:38;;;;;;;8.65;7.25;;;25.20;92.90;;;;;;5026026;28;20037;-56
2023/07/09 06:22:04;;;;;;;8.23;7.18;;;25.10;92.90;;;;;;5031924;28;20048;-61
2023/07/09 06:24:30;;;;;;;12.18;7.55;;;24.90;93.10;;;;;;5041562;28;20037;-58
2023/07/09 06:26:56;;;;;;;10.38;7.28;;;24.80;93.40;;;;;;5041314;28;20052;-56
2023/07/09 06:29:22;;;;;;;12.20;7.63;;;24.70;93.60;;;;;;5041802;28;20071;-58
2023/07/09 06:31:47;;;;;;;12.63;7.80;;;24.60;93.60;;;;;;5040739;28;20098;-55
2023/07/09 06:34:13;;;;;;;9.63;7.63;;;24.50;93.80;;;;;;5041031;28;20337;-61
2023/07/09 06:36:38;;;;;;;11.45;7.22;;;24.40;94.10;;;;;;5040271;28;20044;-60
2023/07/09 06:39:05;;;;;;;10.90;7.72;;;24.40;94.20;;;;;;5039594;28;20041;-56
2023/07/09 06:41:32;;;;;;;10.95;7.60;;;24.40;94.10;;;;;;5022945;28;20560;-62
2023/07/09 06:43:58;;;;;;;9.77;7.50;;;24.40;94.10;;;;;;5040438;28;20095;-57
2023/07/09 06:46:24;;;;;;;11.50;7.60;;;24.60;94.10;;;;;;5040857;28;20454;-61
2023/07/09 06:48:49;;;;;;;11.18;7.90;;;24.60;94.20;;;;;;5021715;28;20554;-61
2023/07/09 06:51:15;;;;;;;9.80;7.43;;;24.70;94.20;;;;;;5039263;28;20133;-57
2023/07/09 06:53:42;;;;;;;12.18;7.32;;;24.80;94.30;;;;;;5040590;28;20037;-61
2023/07/09 06:56:08;;;;;;;8.40;7.50;;;25.00;94.10;;;;;;5039387;28;20129;-57
2023/07/09 06:58:36;;;;;;;9.73;7.70;;;25.10;94.20;;;;;;5040145;28;20068;-61
2023/07/09 07:01:03;;;;;;;9.25;7.75;;;25.40;93.90;;;;;;5040418;28;20033;-57
2023/07/09 07:03:30;;;;;;;11.15;7.32;;;25.70;93.50;;;;;;5040404;28;20051;-61
2023/07/09 07:05:57;;;;;;;7.70;6.88;;;26.00;93.40;;;;;;5038134;28;20049;-58
2023/07/09 07:08:25;;;;;;;12.15;7.40;;;26.00;93.20;;;;;;5040045;28;20373;-62
2023/07/09 07:11:02;;;;;;;9.73;7.60;;;26.20;93.10;;;;;;5041390;28;20041;-58
2023/07/09 07:13:32;;;;;;;10.18;7.65;;;26.20;93.10;;;;;;5044032;28;20049;-57
2023/07/09 07:15:58;;;;;;;12.43;7.65;;;26.40;93.20;;;;;;5044120;28;20041;-62
2023/07/09 07:18:24;;;;;;;11.27;8.60;;;26.60;93.00;;;;;;5044352;28;20439;-57
2023/07/09 07:20:50;;;;;;;10.90;7.80;;;26.80;92.80;;;;;;5042384;28;20514;-61
2023/07/09 07:23:16;;;;;;;12.73;9.13;;;26.90;92.80;;;;;;5036047;28;20033;-56
2023/07/09 07:25:42;;;;;;;12.20;8.95;;;26.90;92.60;;;;;;5043675;28;20447;-57
2023/07/09 07:28:07;;;;;;;11.38;8.57;;;26.90;92.70;;;;;;5043832;28;20055;-61
2023/07/09 07:30:33;;;;;;;15.02;8.93;;;26.90;92.80;;;;;;5033494;28;20524;-55
2023/07/09 07:32:59;;;;;;;13.63;9.02;;;27.00;92.60;;;;;;5023510;28;20098;-54
2023/07/09 07:35:24;;;;;;;13.07;8.70;;;27.10;92.50;;;;;;5022640;28;20427;-59
2023/07/09 07:37:50;;;;;;;13.20;8.70;;;27.10;92.40;;;;;;5025654;28;20049;-53
2023/07/09 07:40:16;;;;;;;12.20;8.30;;;27.00;92.60;;;;;;5015124;28;20037;-59
2023/07/09 07:42:41;;;;;;;11.45;8.23;;;27.00;92.80;;;;;;5041691;28;20144;-56
2023/07/09 07:45:08;;;;;;;12.95;8.65;;;27.20;92.80;;;;;;5024563;28;20102;-61
2023/07/09 07:47:33;;;;;;;10.02;8.43;;;27.50;92.70;;;;;;5043727;28;20495;-57
2023/07/09 07:49:59;;;;;;;11.93;8.88;;;27.70;92.50;;;;;;5043449;28;20052;-57
2023/07/09 07:52:25;;;;;;;11.23;8.80;;;27.80;92.30;;;;;;5044196;28;20096;-56
2023/07/09 07:54:52;;;;;;;11.63;9.02;;;27.80;92.10;;;;;;5043765;28;20411;-61
2023/07/09 07:57:18;;;;;;;13.98;8.75;;;27.80;92.40;;;;;;5044048;28;20071;-58
2023/07/09 07:59:46;;;;;;;14.32;8.77;;;27.80;92.40;;;;;;5044385;28;20159;-57
2023/07/09 08:02:13;;;;;;;12.50;8.55;;;27.80;92.40;;;;;;5043675;28;20553;-61
2023/07/09 08:04:40;;;;;;;11.00;8.45;;;27.90;92.40;;;;;;5043142;28;20099;-60
2023/07/09 08:07:07;;;;;;;11.77;8.48;;;27.90;92.30;;;;;;5042699;28;20057;-58
2023/07/09 08:09:34;;;;;;;11.48;7.88;;;27.90;92.50;;;;;;5025098;28;20403;-61
2023/07/09 08:12:00;;;;;;;12.52;8.15;;;27.90;92.80;;;;;;5036167;28;20053;-54
2023/07/09 08:14:25;;;;;;;11.82;8.40;;;27.90;92.70;;;;;;5029480;28;20105;-61
2023/07/09 08:16:52;;;;;;;11.10;8.52;;;27.80;93.00;;;;;;5004769;28;20176;-56
2023/07/09 08:19:19;;;;;;;10.63;8.05;;;27.70;93.00;;;;;;5023168;28;20049;-57
2023/07/09 08:21:45;;;;;;;11.27;8.70;;;27.70;92.70;;;;;;5034136;28;20048;-62
2023/07/09 08:24:14;;;;;;;10.85;8.05;;;27.70;92.90;;;;;;5033555;28;20033;-59
2023/07/09 08:26:39;;;;;;;11.93;8.00;;;27.70;93.00;;;;;;5025189;28;20114;-60
2023/07/09 08:29:05;;;;;;;13.10;8.05;;;27.90;93.00;;;;;;5024573;28;20117;-58
2023/07/09 08:31:31;;;;;;;11.93;7.80;;;28.00;93.00;;;;;;5024782;28;20481;-52
2023/07/09 08:33:56;;;;;;;9.43;7.38;;;28.20;92.80;;;;;;5025848;28;20132;-57
2023/07/09 08:36:23;;;;;;;12.77;8.18;;;28.30;92.60;;;;;;5024320;28;20139;-63
2023/07/09 08:38:49;;;;;;;11.35;7.97;;;28.40;92.60;;;;;;5024616;28;20048;-53
2023/07/09 08:41:32;;;;;;;9.68;7.68;;;28.50;92.70;;;;;;5025398;28;20408;-59
2023/07/09 08:44:07;;;;;;;13.32;7.55;;;28.70;92.60;;;;;;5025942;28;20084;-58
2023/07/09 08:46:58;;;;;;;9.85;7.25;;;28.90;92.10;;;;;;5025345;28;20049;-58
2023/07/09 08:49:43;;;;;;;10.60;7.90;;;29.10;92.30;;;;;;5023923;28;20245;-59
2023/07/09 08:52:31;;;;;;;11.98;7.88;;;29.20;92.20;;;;;;5024946;28;20046;-59
2023/07/09 08:54:59;;;;;;;12.70;7.53;;;29.30;92.30;;;;;;5024887;28;20045;-59
2023/07/09 08:57:33;;;;;;;9.25;7.68;;;29.40;92.60;;;;;;5024810;28;20053;-59
2023/07/09 09:00:07;;;;;;;;;;;29.50;91.90;;;;;;5026161;28;20064;-59
2023/07/09 09:02:36;;;;;;;10.00;7.07;;;29.50;91.80;;;;;;5024885;28;19979;-60
2023/07/09 09:05:05;;;;;;;10.57;6.97;;;29.50;91.90;;;;;;5023143;28;20496;-59
2023/07/09 09:07:40;;;;;;;9.30;8.07;;;29.70;91.60;;;;;;5024890;28;20060;-59
2023/07/09 09:10:17;;;;;;;10.15;7.97;;;29.80;91.60;;;;;;5025057;28;20562;-58
2023/07/09 09:12:51;;;;;;;12.50;7.35;;;29.90;91.50;;;;;;5024783;28;20052;-59
2023/07/09 09:15:20;;;;;;;10.18;7.53;;;30.10;91.80;;;;;;5031971;28;20420;-59
2023/07/09 09:17:53;;;;;;;10.10;7.60;;;30.10;91.30;;;;;;5026668;28;20056;-59
2023/07/09 09:20:22;;;;;;;12.88;7.45;;;30.10;91.30;;;;;;5043593;28;20063;-59
2023/07/09 09:23:09;;;;;;;9.95;6.97;;;30.10;91.40;;;;;;5043831;28;20076;-58
2023/07/09 09:25:40;;;;;;;8.75;6.97;;;30.30;91.20;;;;;;5043999;28;20115;-58
2023/07/09 09:28:05;;;;;;;8.63;7.00;;;30.40;90.80;;;;;;5043538;28;20391;-58
2023/07/09 09:30:31;;;;;;;11.88;7.20;;;30.40;91.00;;;;;;5026860;28;20049;-58
2023/07/09 09:32:59;;;;;;;15.52;7.60;;;30.50;90.90;;;;;;5043998;28;20048;-58
2023/07/09 09:35:43;;;;;;;16.60;7.32;;;30.60;91.00;;;;;;5042678;28;20657;-59
2023/07/09 09:38:21;;;;;;;7.95;6.50;;;30.80;90.30;;;;;;5044503;28;20087;-58
2023/07/09 09:40:48;;;;;;;10.63;7.13;;;30.80;90.50;;;;;;5043175;28;20049;-59
2023/07/09 09:43:20;;;;;;;9.80;7.18;;;30.80;90.70;;;;;;5044422;28;20064;-58
2023/07/09 09:45:48;;;;;;;8.02;6.95;;;31.00;90.60;;;;;;5043763;28;20037;-58
2023/07/09 09:48:19;;;;;;;8.40;7.20;;;31.30;90.70;;;;;;5043561;28;20056;-58
2023/07/09 09:50:46;;;;;;;10.77;7.15;;;31.40;90.20;;;;;;5025651;28;20045;-58
2023/07/09 09:53:19;;;;;;;8.35;7.18;;;31.30;90.00;;;;;;5044306;28;20056;-59
2023/07/09 09:55:45;;;;;;;13.00;7.43;;;31.40;90.40;;;;;;5043551;28;20068;-58
2023/07/09 09:58:15;;;;;;;10.57;7.13;;;31.60;90.50;;;;;;5043716;28;20570;-59
2023/07/09 10:00:47;;;;;;;14.70;7.25;;;31.80;90.30;;;;;;5043342;28;20044;-59
2023/07/09 10:03:13;;;;;;;11.30;7.28;;;32.00;90.40;;;;;;5043188;28;20048;-58
2023/07/09 10:05:50;;;;;;;10.25;7.38;;;32.30;90.70;;;;;;5041895;28;20551;-58
2023/07/09 10:08:38;;;;;;;9.38;7.18;;;32.60;90.50;;;;;;5043493;28;20789;-58
2023/07/09 10:11:32;;;;;;;9.50;7.18;;;32.70;90.30;;;;;;5031687;28;20118;-60
2023/07/09 10:14:04;;;;;;;9.23;7.43;;;32.90;90.10;;;;;;5022557;28;20057;-58
2023/07/09 10:16:40;;;;;;;11.18;7.25;;;33.10;89.80;;;;;;5033829;28;20283;-59
2023/07/09 10:19:30;;;;;;;8.65;7.30;;;33.20;89.70;;;;;;5026564;28;20459;-58
2023/07/09 10:22:12;;;;;;;9.82;7.07;;;33.30;88.20;;;;;;5023901;28;20052;-58
2023/07/09 10:24:59;;;;;;;9.23;6.30;;;33.40;89.20;;;;;;5041665;28;20076;-58
2023/07/09 10:27:37;;;;;;;8.25;6.22;;;33.70;88.70;;;;;;5042980;28;20090;-57
2023/07/09 10:30:35;;;;;;;10.10;6.63;;;34.00;88.60;;;;;;5035929;28;20131;-58
2023/07/09 10:33:12;;;;;;;11.13;7.28;;;34.30;88.40;;;;;;5043645;28;20051;-58
2023/07/09 10:36:00;;;;;;;9.77;6.68;;;34.30;86.30;;;;;;5024533;28;20122;-58
2023/07/09 10:38:34;;;;;;;11.32;7.05;;;34.30;87.60;;;;;;5042518;28;20044;-56
2023/07/09 10:41:03;;;;;;;9.82;7.32;;;34.40;87.80;;;;;;5042926;28;20071;-58
2023/07/09 10:43:48;;;;;;;8.80;7.32;;;34.50;87.70;;;;;;5042685;28;20102;-59
2023/07/09 10:46:24;;;;;;;12.10;7.07;;;34.50;86.70;;;;;;5033060;28;20487;-58
2023/07/09 10:48:52;;;;;;;10.63;7.47;;;34.50;87.80;;;;;;5022069;28;20084;-58
2023/07/09 10:51:29;;;;;;;8.95;6.57;;;34.50;87.70;;;;;;5040415;28;20761;-58
2023/07/09 10:54:21;;;;;;;9.05;6.75;;;34.50;87.50;;;;;;5042290;28;20361;-58
2023/07/09 10:56:51;;;;;;;10.13;7.25;;;34.50;87.70;;;;;;5032603;28;20059;-57
2023/07/09 10:59:32;;;;;;;11.57;6.40;;;34.40;87.60;;;;;;5042151;28;20036;-58
2023/07/09 11:02:29;;;;;;;10.40;6.80;;;34.60;87.20;;;;;;5041425;28;20048;-58
2023/07/09 11:04:58;;;;;;;8.25;7.05;;;34.80;86.80;;;;;;5040839;28;20061;-58
2023/07/09 11:07:35;;;;;;;7.70;6.45;;;34.80;87.30;;;;;;5040822;28;20068;-58
2023/07/09 11:10:06;;;;;;;11.02;6.68;;;34.90;86.80;;;;;;5042268;28;20063;-57
2023/07/09 11:12:40;;;;;;;12.13;7.22;;;34.80;87.10;;;;;;5042226;28;20041;-57
2023/07/09 11:15:30;;;;;;;9.68;6.70;;;34.90;87.10;;;;;;5042137;28;20702;-57
2023/07/09 11:17:58;;;;;;;8.15;7.07;;;34.90;87.00;;;;;;5042340;28;20041;-58
2023/07/09 11:20:35;;;;;;;9.43;6.97;;;34.90;86.50;;;;;;5041064;28;20649;-57
2023/07/09 11:23:07;;;;;;;9.10;6.57;;;34.90;86.10;;;;;;5024992;28;20067;-58
2023/07/09 11:25:44;;;;;;;8.30;6.53;;;35.10;86.30;;;;;;5041624;28;20045;-57
2023/07/09 11:28:10;;;;;;;11.40;6.20;;;35.10;85.90;;;;;;5043019;28;20045;-57
2023/07/09 11:30:54;;;;;;;10.63;6.53;;;35.10;85.70;;;;;;5042374;28;20547;-58
2023/07/09 11:33:27;;;;;;;9.23;6.22;;;34.90;85.00;;;;;;5042617;28;20056;-57
2023/07/09 11:36:08;;;;;;;7.63;6.00;;;34.70;85.70;;;;;;5041792;28;20047;-58
2023/07/09 11:38:43;;;;;;;9.80;6.40;;;34.80;85.70;;;;;;5046029;28;20039;-57
2023/07/09 11:41:34;;;;;;;8.38;6.13;;;34.80;85.40;;;;;;5022455;28;20050;-58
2023/07/09 11:44:19;;;;;;;8.88;5.85;;;34.90;85.80;;;;;;5033145;28;20064;-58
2023/07/09 11:47:17;;;;;;;10.45;5.97;;;35.10;86.30;;;;;;5041662;28;20053;-57
2023/07/09 11:49:54;;;;;;;7.88;6.00;;;35.30;84.80;;;;;;5006331;28;20060;-58
2023/07/09 11:52:29;;;;;;;7.78;5.78;;;35.40;85.30;;;;;;5040441;28;20052;-58
2023/07/09 11:54:55;;;;;;;9.20;6.03;;;35.60;85.10;;;;;;5042183;28;20053;-58
2023/07/09 11:57:21;;;;;;;8.70;5.78;;;35.70;85.50;;;;;;5026398;28;20045;-58
2023/07/09 11:59:47;;;;;;;8.40;5.43;;;35.80;85.20;;;;;;5043970;28;20032;-57
2023/07/09 12:02:19;;;;;;;11.07;6.03;;;35.80;84.50;;;;;;5045234;28;20037;-57
2023/07/09 12:04:49;;;;;;;9.88;5.72;;;35.80;84.10;;;;;;5043247;28;20084;-58
2023/07/09 12:07:16;;;;;;;9.23;5.65;;;35.80;84.10;;;;;;5044920;28;20048;-57
2023/07/09 12:09:49;;;;;;;7.93;6.05;;;35.70;84.40;;;;;;5044955;28;20750;-57
2023/07/09 12:12:24;;;;;;;8.55;5.95;;;35.70;84.40;;;;;;5046117;28;20123;-58
2023/07/09 12:14:50;;;;;;;10.80;5.85;;;35.80;84.20;;;;;;5044347;28;20488;-57
2023/07/09 12:17:16;;;;;;;10.85;6.28;;;35.90;84.00;;;;;;5043404;28;20812;-60
2023/07/09 12:19:42;;;;;;;10.45;5.68;;;35.70;84.30;;;;;;5043547;28;20036;-58
2023/07/09 12:22:25;;;;;;;7.00;5.40;;;35.50;84.30;;;;;;5045419;28;20110;-59
2023/07/09 12:24:53;;;;;;;;;;;35.50;83.60;;;;;;5021869;28;20048;-57
2023/07/09 12:27:23;;;;;;;8.18;5.20;;;35.50;85.00;;;;;;5025707;28;19959;-58
2023/07/09 12:29:51;;;;;;;10.95;5.72;;;35.60;84.10;;;;;;5039960;28;20063;-59
2023/07/09 12:32:17;;;;;;;10.75;5.20;;;35.70;82.50;;;;;;5025833;28;20060;-57
2023/07/09 12:34:49;;;;;;;11.55;5.00;;;35.60;83.20;;;;;;5024486;28;20087;-57
2023/07/09 12:37:16;;;;;;;11.20;4.88;;;35.60;80.80;;;;;;5044101;28;20515;-58
2023/07/09 12:39:42;;;;;;;8.68;4.97;;;35.30;81.40;;;;;;5045471;28;20037;-58
2023/07/09 12:42:31;;;;;;;7.22;5.20;;;35.10;81.90;;;;;;5032343;28;20065;-57
2023/07/09 12:44:57;;;;;;;7.55;4.90;;;35.10;81.70;;;;;;5042429;28;20049;-58
2023/07/09 12:47:25;;;;;;;5.95;4.50;;;35.20;82.00;;;;;;5042621;28;20049;-58
2023/07/09 12:49:51;;;;;;;7.68;5.07;;;35.30;82.30;;;;;;5026393;28;20133;-58
2023/07/09 12:52:24;;;;;;;8.18;5.00;;;35.20;81.70;;;;;;5043501;28;20053;-58